Time;durP1;ratioP1;P1;durP2;ratioP2;P2;SDS_P1;SDS_P2;PMS_P1;PMS_P2;Temp;Humidity;BMP_temperature;BMP_pressure;BME280_temperature;BME280_humidity;BME280_pressure;Samples;Min_cycle;Max_cycle;Signal;HPM_P1;HPM_P2
2023/09/02 00:00:47;;;;;;;2.43;1.10;;;14.10;99.90;;;;;;4997152;28;20600;-61
2023/09/02 00:03:13;;;;;;;2.90;1.30;;;14.10;99.90;;;;;;4995798;28;20204;-61
2023/09/02 00:05:38;;;;;;;1.97;1.00;;;14.00;99.90;;;;;;4987294;28;20290;-61
2023/09/02 00:08:04;;;;;;;3.80;1.60;;;14.00;99.90;;;;;;4987102;28;20274;-61
2023/09/02 00:10:30;;;;;;;98.50;27.87;;;14.00;99.90;;;;;;4988086;28;20546;-61
2023/09/02 00:12:55;;;;;;;5.80;1.30;;;13.90;99.90;;;;;;4986061;28;20271;-61
2023/09/02 00:15:21;;;;;;;2.37;0.87;;;13.90;99.90;;;;;;4983241;28;20171;-61
2023/09/02 00:17:47;;;;;;;1485.07;761.00;;;13.90;99.90;;;;;;4980970;28;20636;-61
2023/09/02 00:20:12;;;;;;;5.73;1.10;;;13.90;99.90;;;;;;4983104;28;20176;-61
2023/09/02 00:22:38;;;;;;;1.70;0.93;;;13.90;99.90;;;;;;4982118;28;20613;-61
2023/09/02 00:25:04;;;;;;;2.37;0.97;;;13.90;99.90;;;;;;4980953;28;20184;-61
2023/09/02 00:27:29;;;;;;;2.23;1.17;;;13.90;99.90;;;;;;4981955;28;20182;-61
2023/09/02 00:29:55;;;;;;;4.90;1.07;;;13.90;99.90;;;;;;4981902;28;20188;-61
2023/09/02 00:32:21;;;;;;;2.20;1.27;;;13.80;99.90;;;;;;4981031;28;20267;-61
2023/09/02 00:34:47;;;;;;;5.50;1.30;;;13.90;99.90;;;;;;4985567;28;20545;-61
2023/09/02 00:37:13;;;;;;;2.73;1.17;;;13.90;99.90;;;;;;4986407;28;20176;-61
2023/09/02 00:39:38;;;;;;;2.87;1.00;;;13.90;99.90;;;;;;4987387;28;20438;-61
2023/09/02 00:42:07;;;;;;;4.40;1.00;;;13.80;99.90;;;;;;4986177;28;20302;-61
2023/09/02 00:44:35;;;;;;;9.03;1.40;;;13.80;99.90;;;;;;4992268;28;20180;-61
2023/09/02 00:47:02;;;;;;;12.63;1.47;;;13.70;99.90;;;;;;5007062;28;20422;-61
2023/09/02 00:49:28;;;;;;;2.13;0.90;;;13.70;99.90;;;;;;5009566;28;20498;-62
2023/09/02 00:51:53;;;;;;;4.30;1.47;;;13.70;99.90;;;;;;4982421;28;20514;-62
2023/09/02 00:54:19;;;;;;;9.30;1.47;;;13.60;99.90;;;;;;4982556;28;20541;-61
2023/09/02 00:56:44;;;;;;;3.53;1.37;;;13.50;99.90;;;;;;4983136;28;20629;-61
2023/09/02 00:59:11;;;;;;;3.47;1.20;;;13.60;99.90;;;;;;4982969;28;20243;-61
2023/09/02 01:01:41;;;;;;;2.63;1.20;;;13.60;99.90;;;;;;4982359;28;20188;-61
2023/09/02 01:04:07;;;;;;;10.87;1.43;;;13.60;99.90;;;;;;4982707;28;20527;-61
2023/09/02 01:06:34;;;;;;;5.73;1.33;;;13.60;99.90;;;;;;4987244;28;20426;-61
2023/09/02 01:09:00;;;;;;;5.17;1.50;;;13.50;99.90;;;;;;4994942;28;20301;-61
2023/09/02 01:11:26;;;;;;;1.80;1.17;;;13.50;99.90;;;;;;5007492;28;20413;-61
2023/09/02 01:13:52;;;;;;;3.83;1.60;;;13.50;99.90;;;;;;4997347;28;20430;-61
2023/09/02 01:16:18;;;;;;;3.90;0.90;;;13.50;99.90;;;;;;4998604;28;21034;-61
2023/09/02 01:18:45;;;;;;;3.20;1.47;;;13.50;99.90;;;;;;4995870;28;20176;-61
2023/09/02 01:21:31;;;;;;;2.53;0.90;;;13.40;99.90;;;;;;4994411;28;20180;-61
2023/09/02 01:24:12;;;;;;;2.40;1.43;;;13.40;99.90;;;;;;4994262;28;20403;-61
2023/09/02 01:27:05;;;;;;;2.50;1.27;;;13.40;99.90;;;;;;4994529;28;20410;-61
2023/09/02 01:29:38;;;;;;;1.80;1.00;;;13.40;99.90;;;;;;5006464;28;20469;-61
2023/09/02 01:32:07;;;;;;;2.57;1.20;;;13.40;99.90;;;;;;5013587;28;20414;-61
2023/09/02 01:34:34;;;;;;;2.33;1.00;;;13.40;99.90;;;;;;4999853;28;20930;-61
2023/09/02 01:37:02;;;;;;;2.17;1.00;;;13.40;99.90;;;;;;4985013;28;20453;-61
2023/09/02 01:39:29;;;;;;;2.53;1.00;;;13.30;99.90;;;;;;4989695;28;20434;-61
2023/09/02 01:41:55;;;;;;;3.37;1.20;;;13.30;99.90;;;;;;4988985;28;20438;-61
2023/09/02 01:44:22;;;;;;;20.90;1.57;;;13.30;99.90;;;;;;4988976;28;20856;-61
2023/09/02 01:46:49;;;;;;;2.90;1.30;;;13.30;99.90;;;;;;4988265;28;20842;-61
2023/09/02 01:49:15;;;;;;;8.00;1.27;;;13.20;99.90;;;;;;4988787;28;20505;-61
2023/09/02 01:51:41;;;;;;;1.97;1.10;;;13.20;99.90;;;;;;4988874;28;20415;-61
2023/09/02 01:54:07;;;;;;;2.97;1.40;;;13.20;99.90;;;;;;4988508;28;20888;-61
2023/09/02 01:56:33;;;;;;;2.03;1.10;;;13.10;99.90;;;;;;4989023;28;20422;-61
2023/09/02 01:58:59;;;;;;;10.33;1.37;;;13.10;99.90;;;;;;4988997;28;20782;-61
2023/09/02 02:01:25;;;;;;;1.67;0.90;;;13.10;99.90;;;;;;4988265;28;20688;-61
2023/09/02 02:04:06;;;;;;;7.63;1.20;;;13.10;99.90;;;;;;4989813;28;20552;-61
2023/09/02 02:06:32;;;;;;;7.40;2.13;;;13.10;99.90;;;;;;4989976;28;20237;-61
2023/09/02 02:09:06;;;;;;;1.83;0.80;;;13.10;99.90;;;;;;4993757;28;20466;-61
2023/09/02 02:11:37;;;;;;;7.23;1.37;;;13.10;99.90;;;;;;5005342;28;20910;-61
2023/09/02 02:14:03;;;;;;;3.53;1.00;;;13.10;99.90;;;;;;5006893;28;20419;-61
2023/09/02 02:16:30;;;;;;;3.00;1.13;;;13.10;99.90;;;;;;4992814;28;20429;-61
2023/09/02 02:18:57;;;;;;;2.30;1.20;;;13.10;99.90;;;;;;5012749;28;20439;-62
2023/09/02 02:21:23;;;;;;;3.10;1.23;;;13.10;99.90;;;;;;4996660;28;20443;-61
2023/09/02 02:23:49;;;;;;;2.90;1.13;;;13.10;99.90;;;;;;5012078;28;20442;-61
2023/09/02 02:26:15;;;;;;;4.53;1.73;;;13.10;99.90;;;;;;5012627;28;20457;-61
2023/09/02 02:28:41;;;;;;;3.70;1.43;;;13.10;99.90;;;;;;5012667;28;20209;-61
2023/09/02 02:31:07;;;;;;;4.33;1.80;;;13.00;99.90;;;;;;5012705;28;20414;-61
2023/09/02 02:33:33;;;;;;;3.40;1.73;;;12.90;99.90;;;;;;5007018;28;20419;-61
2023/09/02 02:35:58;;;;;;;2.17;1.30;;;12.90;99.90;;;;;;4993143;28;20184;-62
2023/09/02 02:38:24;;;;;;;3.43;1.60;;;12.90;99.90;;;;;;5005886;28;20692;-61
2023/09/02 02:40:50;;;;;;;12.43;1.50;;;12.90;99.90;;;;;;4993331;28;20180;-61
2023/09/02 02:43:16;;;;;;;3.00;1.53;;;12.90;99.90;;;;;;5010810;28;20191;-61
2023/09/02 02:45:42;;;;;;;2.30;1.07;;;12.90;99.90;;;;;;5010819;28;20270;-61
2023/09/02 02:48:15;;;;;;;2.87;1.20;;;12.90;99.90;;;;;;5005905;28;21105;-61
2023/09/02 02:50:40;;;;;;;4.20;2.00;;;12.80;99.90;;;;;;4995920;28;20192;-61
2023/09/02 02:53:07;;;;;;;1.87;0.97;;;12.80;99.90;;;;;;5005039;28;20489;-61
2023/09/02 02:55:33;;;;;;;2.30;1.30;;;12.90;99.90;;;;;;4992815;28;20547;-61
2023/09/02 02:57:59;;;;;;;1.67;0.97;;;12.80;99.90;;;;;;5006170;28;20438;-61
2023/09/02 03:00:24;;;;;;;2.50;1.37;;;12.80;99.90;;;;;;5005619;28;20618;-61
2023/09/02 03:02:53;;;;;;;2.63;1.03;;;12.80;99.90;;;;;;5011310;28;20547;-61
2023/09/02 03:05:20;;;;;;;1.97;0.97;;;12.90;99.90;;;;;;5011993;28;20274;-61
2023/09/02 03:07:47;;;;;;;14.03;1.67;;;12.80;99.90;;;;;;4992379;28;20481;-61
2023/09/02 03:10:12;;;;;;;8.30;1.43;;;12.80;99.90;;;;;;4997352;28;20419;-61
2023/09/02 03:12:38;;;;;;;4.13;1.57;;;12.70;99.90;;;;;;5011696;28;20445;-61
2023/09/02 03:15:04;;;;;;;3.13;1.53;;;12.70;99.90;;;;;;4982873;28;20220;-61
2023/09/02 03:17:30;;;;;;;2.03;1.30;;;12.70;99.90;;;;;;4983949;28;20188;-61
2023/09/02 03:19:56;;;;;;;4.60;1.67;;;12.70;99.90;;;;;;4984143;28;20449;-61
2023/09/02 03:22:21;;;;;;;4.23;1.30;;;12.70;99.90;;;;;;4984165;28;20506;-61
2023/09/02 03:24:53;;;;;;;3.77;1.03;;;12.70;99.90;;;;;;4983373;28;20294;-61
2023/09/02 03:27:19;;;;;;;2.30;1.20;;;12.70;99.90;;;;;;4984293;28;20180;-61
2023/09/02 03:29:48;;;;;;;2.27;1.57;;;12.60;99.90;;;;;;4984184;28;20900;-61
2023/09/02 03:32:14;;;;;;;3.10;1.30;;;12.70;99.90;;;;;;4983566;28;20298;-61
2023/09/02 03:34:40;;;;;;;3.53;1.00;;;12.70;99.90;;;;;;4983825;28;20489;-61
2023/09/02 03:37:06;;;;;;;2.10;1.23;;;12.60;99.90;;;;;;4983186;28;20184;-61
2023/09/02 03:39:33;;;;;;;4.90;1.70;;;12.70;99.90;;;;;;4983915;28;20660;-61
2023/09/02 03:41:59;;;;;;;2.63;1.50;;;12.60;99.90;;;;;;4983923;28;20184;-61
2023/09/02 03:44:25;;;;;;;12.00;1.60;;;12.60;99.90;;;;;;4983825;28;20492;-61
2023/09/02 03:46:51;;;;;;;2.00;1.13;;;12.50;99.90;;;;;;4983394;28;20439;-61
2023/09/02 03:49:16;;;;;;;2.53;1.33;;;12.40;99.90;;;;;;4984051;28;20846;-61
2023/09/02 03:51:42;;;;;;;1.90;1.33;;;12.40;99.90;;;;;;4983954;28;20459;-61
2023/09/02 03:54:08;;;;;;;2.97;1.27;;;12.40;99.90;;;;;;4983312;28;20200;-61
2023/09/02 03:56:36;;;;;;;3.33;1.37;;;12.40;99.90;;;;;;4983945;28;20184;-61
2023/09/02 03:59:03;;;;;;;1.83;1.03;;;12.40;99.90;;;;;;4984114;28;20434;-61
2023/09/02 04:01:30;;;;;;;2.13;1.40;;;12.30;99.90;;;;;;4983191;28;20958;-61
2023/09/02 04:03:56;;;;;;;2.57;1.30;;;12.30;99.90;;;;;;4983785;28;20485;-61
2023/09/02 04:06:22;;;;;;;2.57;1.47;;;12.30;99.90;;;;;;4983106;28;21754;-61
2023/09/02 04:08:47;;;;;;;3.20;1.50;;;12.30;99.90;;;;;;4983468;28;20224;-61
2023/09/02 04:11:13;;;;;;;2.73;1.17;;;12.40;99.90;;;;;;4983964;28;20192;-61
2023/09/02 04:13:38;;;;;;;3.83;1.63;;;12.40;99.90;;;;;;4983521;28;20656;-61
2023/09/02 04:16:05;;;;;;;2.73;1.60;;;12.40;99.90;;;;;;4982585;28;20187;-61
2023/09/02 04:18:31;;;;;;;2.60;0.90;;;12.30;99.90;;;;;;4983644;28;20192;-61
2023/09/02 04:20:59;;;;;;;2.83;1.53;;;12.40;99.90;;;;;;4983543;28;20435;-61
2023/09/02 04:23:25;;;;;;;2.40;1.30;;;12.40;99.90;;;;;;4983171;28;20191;-61
2023/09/02 04:25:52;;;;;;;2.17;1.10;;;12.40;99.90;;;;;;4983251;28;20478;-61
2023/09/02 04:28:18;;;;;;;2.37;1.23;;;12.40;99.90;;;;;;4983460;28;20595;-61
2023/09/02 04:30:45;;;;;;;2.63;0.93;;;12.30;99.90;;;;;;4983490;28;20435;-61
2023/09/02 04:33:12;;;;;;;7.17;1.67;;;12.30;99.90;;;;;;4982941;28;21110;-61
2023/09/02 04:35:45;;;;;;;4.70;1.80;;;12.30;99.90;;;;;;4982616;28;20431;-62
2023/09/02 04:38:11;;;;;;;2.77;1.33;;;12.30;99.90;;;;;;4982635;28;20442;-62
2023/09/02 04:40:41;;;;;;;1.77;0.93;;;12.30;99.90;;;;;;4983424;28;20435;-62
2023/09/02 04:43:08;;;;;;;2.67;1.33;;;12.30;99.90;;;;;;4984040;28;20195;-62
2023/09/02 04:45:37;;;;;;;4.80;1.47;;;12.30;99.90;;;;;;4989480;28;20477;-62
2023/09/02 04:48:04;;;;;;;2.90;1.60;;;12.20;99.90;;;;;;4986373;28;20477;-62
2023/09/02 04:50:31;;;;;;;2.70;1.30;;;12.20;99.90;;;;;;4970838;28;20438;-63
2023/09/02 04:52:58;;;;;;;2.90;1.00;;;12.20;99.90;;;;;;4989445;28;21006;-62
2023/09/02 04:55:25;;;;;;;5.67;1.77;;;12.20;99.90;;;;;;4988289;28;20441;-62
2023/09/02 04:57:55;;;;;;;2.90;1.23;;;12.20;99.90;;;;;;4989562;28;20442;-62
2023/09/02 05:00:24;;;;;;;2.37;0.90;;;12.30;99.90;;;;;;4989268;28;20439;-62
2023/09/02 05:02:50;;;;;;;1.93;1.00;;;12.30;99.90;;;;;;4989205;28;20525;-62
2023/09/02 05:05:17;;;;;;;2.33;1.30;;;12.30;99.90;;;;;;4988882;28;20435;-62
2023/09/02 05:07:43;;;;;;;2.10;1.23;;;12.20;99.90;;;;;;4989278;28;20294;-62
2023/09/02 05:10:08;;;;;;;3.67;1.30;;;12.30;99.90;;;;;;4989211;28;21836;-62
2023/09/02 05:12:34;;;;;;;2.30;1.50;;;12.30;99.90;;;;;;4989264;28;20184;-63
2023/09/02 05:15:00;;;;;;;2.47;1.20;;;12.30;99.90;;;;;;4989194;28;20212;-62
2023/09/02 05:17:26;;;;;;;5.90;2.43;;;12.30;99.90;;;;;;4985577;28;20211;-62
2023/09/02 05:19:52;;;;;;;4.00;1.83;;;12.30;99.90;;;;;;4985469;28;20518;-62
2023/09/02 05:22:17;;;;;;;2.67;1.47;;;12.40;99.90;;;;;;4985341;28;20563;-62
2023/09/02 05:24:43;;;;;;;3.77;2.07;;;12.40;99.90;;;;;;4984889;28;20246;-62
2023/09/02 05:27:09;;;;;;;2.97;1.30;;;12.40;99.90;;;;;;4985535;28;20620;-62
2023/09/02 05:29:34;;;;;;;6.50;3.03;;;12.50;99.90;;;;;;4985292;28;20211;-62
2023/09/02 05:32:00;;;;;;;8.90;3.67;;;12.50;99.90;;;;;;4984972;28;20183;-62
2023/09/02 05:34:26;;;;;;;14.30;4.33;;;12.50;99.90;;;;;;4985020;28;20690;-62
2023/09/02 05:36:51;;;;;;;8.30;3.57;;;12.50;99.90;;;;;;4985207;28;20191;-62
2023/09/02 05:39:17;;;;;;;7.60;4.03;;;12.60;99.90;;;;;;4985521;28;20222;-62
2023/09/02 05:41:45;;;;;;;7.23;4.07;;;12.70;99.90;;;;;;4985007;28;20981;-62
2023/09/02 05:44:11;;;;;;;9.67;3.30;;;12.70;99.90;;;;;;4984807;28;20175;-62
2023/09/02 05:46:37;;;;;;;11.33;4.47;;;12.80;99.90;;;;;;4986253;28;20529;-62
2023/09/02 05:49:03;;;;;;;12.30;4.33;;;12.80;99.90;;;;;;4989160;28;20524;-62
2023/09/02 05:51:29;;;;;;;7.70;4.33;;;12.90;99.90;;;;;;4989036;28;20278;-62
2023/09/02 05:53:55;;;;;;;10.13;4.00;;;12.90;99.90;;;;;;4988768;28;20639;-62
2023/09/02 05:56:21;;;;;;;9.13;3.47;;;13.00;99.90;;;;;;4984962;28;20431;-62
2023/09/02 05:58:47;;;;;;;5.47;3.27;;;13.00;99.90;;;;;;4986021;28;20474;-62
2023/09/02 06:01:12;;;;;;;6.37;3.33;;;13.10;99.90;;;;;;4985487;28;20192;-62
2023/09/02 06:03:38;;;;;;;6.37;2.90;;;13.20;99.90;;;;;;4985425;28;20219;-62
2023/09/02 06:06:13;;;;;;;4.37;2.10;;;13.20;99.90;;;;;;4985679;28;20227;-62
2023/09/02 06:08:39;;;;;;;4.33;2.20;;;13.30;99.90;;;;;;4985221;28;20222;-62
2023/09/02 06:11:05;;;;;;;7.10;2.80;;;13.30;99.90;;;;;;4986051;28;20489;-62
2023/09/02 06:13:31;;;;;;;6.13;2.57;;;13.40;99.90;;;;;;4985356;28;21402;-62
2023/09/02 06:16:02;;;;;;;4.40;2.13;;;13.50;99.90;;;;;;4985145;28;20818;-62
2023/09/02 06:18:29;;;;;;;2.40;1.80;;;13.60;99.90;;;;;;4985657;28;20435;-62
2023/09/02 06:20:55;;;;;;;2.63;1.50;;;13.70;99.90;;;;;;4985581;28;20449;-62
2023/09/02 06:23:22;;;;;;;3.37;1.83;;;13.80;99.90;;;;;;4985518;28;20557;-62
2023/09/02 06:25:58;;;;;;;4.20;2.60;;;13.90;99.90;;;;;;4984917;28;20282;-62
2023/09/02 06:28:24;;;;;;;5.93;2.70;;;14.00;99.90;;;;;;4992733;28;20556;-62
2023/09/02 06:30:50;;;;;;;5.57;2.53;;;14.20;99.90;;;;;;4984210;28;20419;-62
2023/09/02 06:33:17;;;;;;;3.70;2.30;;;14.30;99.90;;;;;;4989290;28;20423;-62
2023/09/02 06:35:43;;;;;;;3.67;2.07;;;14.40;99.90;;;;;;4984204;28;20896;-62
2023/09/02 06:38:09;;;;;;;6.53;2.70;;;14.50;99.90;;;;;;4986919;28;20422;-63
2023/09/02 06:40:34;;;;;;;4.47;1.87;;;14.60;99.90;;;;;;4982463;28;20306;-62
2023/09/02 06:43:00;;;;;;;2.90;1.57;;;14.90;99.90;;;;;;4990773;28;20302;-62
2023/09/02 06:45:26;;;;;;;4.40;1.83;;;15.20;99.90;;;;;;4981998;28;21015;-62
2023/09/02 06:47:51;;;;;;;5.20;1.70;;;15.40;99.90;;;;;;4988897;28;20203;-62
2023/09/02 06:50:17;;;;;;;3.27;1.33;;;15.60;99.90;;;;;;4982459;28;20571;-62
2023/09/02 06:52:43;;;;;;;5.50;2.17;;;15.80;99.90;;;;;;4992938;28;20526;-62
2023/09/02 06:55:08;;;;;;;2.93;1.50;;;16.10;99.90;;;;;;4990067;28;20645;-62
2023/09/02 06:57:34;;;;;;;2.77;1.50;;;16.30;99.90;;;;;;4985872;28;20188;-62
2023/09/02 07:00:00;;;;;;;2.90;1.37;;;16.50;99.90;;;;;;4988216;28;20267;-62
2023/09/02 07:02:25;;;;;;;4.53;1.43;;;16.60;99.90;;;;;;4986055;28;20230;-62
2023/09/02 07:04:51;;;;;;;2.03;1.30;;;16.80;99.90;;;;;;4986070;28;20575;-64
2023/09/02 07:07:17;;;;;;;2.27;1.53;;;17.00;99.90;;;;;;4986492;28;20739;-64
2023/09/02 07:09:43;;;;;;;2.27;1.30;;;17.10;99.90;;;;;;4986536;28;20235;-64
2023/09/02 07:12:08;;;;;;;2.57;1.20;;;17.50;99.90;;;;;;4986338;28;20259;-64
2023/09/02 07:14:34;;;;;;;5.20;1.53;;;18.00;99.90;;;;;;4986550;28;20176;-68
2023/09/02 07:17:00;;;;;;;4.23;1.30;;;18.50;99.90;;;;;;4985746;28;20641;-64
2023/09/02 07:19:25;;;;;;;4.40;1.70;;;18.90;99.90;;;;;;4986461;28;20247;-64
2023/09/02 07:21:51;;;;;;;1.90;1.30;;;19.30;99.90;;;;;;4986669;28;20653;-64
2023/09/02 07:24:17;;;;;;;2.53;1.37;;;19.50;99.90;;;;;;4985956;28;20188;-65
2023/09/02 07:26:42;;;;;;;3.60;1.83;;;20.10;99.90;;;;;;4987126;28;20179;-65
2023/09/02 07:29:08;;;;;;;4.50;1.20;;;20.70;99.90;;;;;;4982868;28;20210;-65
2023/09/02 07:31:34;;;;;;;2.60;1.17;;;22.10;99.90;;;;;;4975698;28;20179;-65
2023/09/02 07:34:00;;;;;;;2.53;1.23;;;23.20;99.90;;;;;;4992107;28;20525;-65
2023/09/02 07:36:26;;;;;;;2.57;1.17;;;24.00;99.90;;;;;;4979317;28;20605;-65
2023/09/02 07:38:51;;;;;;;4.27;1.73;;;24.40;99.90;;;;;;4982612;28;20183;-65
2023/09/02 07:41:17;;;;;;;5.70;1.53;;;24.40;99.90;;;;;;4985724;28;20272;-64
2023/09/02 07:43:43;;;;;;;5.20;1.20;;;24.10;99.90;;;;;;4973986;28;20188;-65
2023/09/02 07:46:10;;;;;;;2.90;1.33;;;24.40;99.90;;;;;;4975556;28;20184;-64
2023/09/02 07:48:36;;;;;;;3.97;1.47;;;24.20;99.90;;;;;;4982522;28;20617;-65
2023/09/02 07:51:02;;;;;;;2.40;1.00;;;24.30;99.90;;;;;;4975787;28;20450;-65
2023/09/02 07:53:28;;;;;;;3.67;1.50;;;24.40;99.90;;;;;;4991634;28;20282;-65
2023/09/02 07:55:54;;;;;;;3.97;1.27;;;24.50;99.90;;;;;;4985086;28;20188;-65
2023/09/02 07:58:19;;;;;;;2.17;1.03;;;24.90;99.50;;;;;;4990701;28;20469;-65
2023/09/02 08:00:45;;;;;;;3.67;1.30;;;24.80;99.90;;;;;;4981189;28;20183;-65
2023/09/02 08:03:11;;;;;;;3.30;1.60;;;24.80;99.90;;;;;;4987115;28;20190;-65
2023/09/02 08:05:39;;;;;;;2.77;1.40;;;25.10;99.20;;;;;;4986377;28;20187;-65
2023/09/02 08:08:06;;;;;;;2.00;1.07;;;24.90;99.90;;;;;;4991727;28;20210;-65
2023/09/02 08:10:31;;;;;;;2.83;1.53;;;24.90;99.90;;;;;;4986160;28;20451;-65
2023/09/02 08:12:57;;;;;;;3.67;1.40;;;24.80;99.90;;;;;;4991681;28;20446;-64
2023/09/02 08:15:24;;;;;;;2.50;1.13;;;25.00;99.90;;;;;;4991178;28;20211;-65
2023/09/02 08:17:50;;;;;;;5.07;1.70;;;24.90;99.90;;;;;;4981786;28;20179;-64
2023/09/02 08:20:15;;;;;;;2.30;1.10;;;24.90;99.90;;;;;;4974320;28;20415;-64
2023/09/02 08:22:43;;;;;;;2.10;1.20;;;24.90;99.90;;;;;;4991400;28;20184;-64
2023/09/02 08:25:12;;;;;;;2.13;1.00;;;24.70;99.90;;;;;;4988230;28;20167;-65
2023/09/02 08:27:37;;;;;;;3.77;1.17;;;24.90;99.20;;;;;;4989253;28;20428;-64
2023/09/02 08:30:04;;;;;;;2.30;1.10;;;24.60;99.90;;;;;;4987277;28;20179;-64
2023/09/02 08:32:30;;;;;;;2.37;1.30;;;24.60;99.90;;;;;;4982334;28;20310;-64
2023/09/02 08:34:56;;;;;;;4.77;1.60;;;25.30;98.60;;;;;;4988774;28;20183;-64
2023/09/02 08:37:22;;;;;;;3.35;1.15;;;25.40;98.90;;;;;;4991524;28;20249;-65
2023/09/02 08:39:47;;;;;;;2.70;1.00;;;25.50;97.90;;;;;;4975874;28;20196;-65
2023/09/02 08:42:20;;;;;;;2.67;1.30;;;25.80;98.00;;;;;;4977083;28;20179;-64
2023/09/02 08:44:47;;;;;;;3.55;1.23;;;26.30;96.90;;;;;;4976632;28;20217;-65
2023/09/02 08:47:16;;;;;;;2.60;0.95;;;26.40;96.90;;;;;;4990133;28;20174;-65
2023/09/02 08:49:41;;;;;;;6.22;1.50;;;26.50;96.90;;;;;;4978243;28;20202;-65
2023/09/02 08:52:08;;;;;;;3.17;1.10;;;26.70;96.00;;;;;;4981930;28;20187;-65
2023/09/02 08:54:34;;;;;;;2.03;1.00;;;27.00;95.70;;;;;;4982576;28;20296;-65
2023/09/02 08:57:01;;;;;;;3.83;1.38;;;27.10;95.50;;;;;;4983168;28;20179;-65
2023/09/02 08:59:28;;;;;;;1.80;0.90;;;26.80;94.90;;;;;;4982923;28;21356;-65
2023/09/02 09:01:54;;;;;;;2.75;0.93;;;26.60;95.50;;;;;;4982628;28;20233;-65
2023/09/02 09:04:21;;;;;;;5.05;1.73;;;26.60;95.20;;;;;;4981554;28;20297;-65
2023/09/02 09:06:47;;;;;;;3.28;1.13;;;26.60;96.00;;;;;;4981140;28;20188;-64
2023/09/02 09:09:14;;;;;;;2.33;0.90;;;26.80;95.10;;;;;;4982790;28;20219;-64
2023/09/02 09:11:41;;;;;;;3.17;1.02;;;26.50;96.00;;;;;;4981984;28;20187;-64
2023/09/02 09:14:17;;;;;;;5.70;1.67;;;27.00;95.60;;;;;;4981732;28;20213;-61
2023/09/02 09:16:43;;;;;;;2.13;0.93;;;26.80;95.20;;;;;;4981447;28;20552;-61
2023/09/02 09:19:09;;;;;;;1.98;0.98;;;26.60;94.90;;;;;;4982598;28;20187;-61
2023/09/02 09:21:35;;;;;;;3.28;1.13;;;27.20;93.70;;;;;;4981158;28;20191;-61
2023/09/02 09:24:02;;;;;;;2.42;1.38;;;27.30;95.20;;;;;;4982824;28;20183;-61
2023/09/02 09:26:29;;;;;;;2.95;1.23;;;27.60;93.90;;;;;;4982344;28;20203;-61
2023/09/02 09:28:58;;;;;;;2.08;0.82;;;27.70;93.60;;;;;;4983160;28;20227;-61
2023/09/02 09:31:25;;;;;;;6.63;0.93;;;28.40;93.10;;;;;;4985625;28;20183;-61
2023/09/02 09:34:00;;;;;;;2.47;1.27;;;28.20;93.60;;;;;;4986194;28;20290;-61
2023/09/02 09:36:27;;;;;;;3.42;1.10;;;28.00;93.40;;;;;;4985527;28;20726;-61
2023/09/02 09:38:55;;;;;;;3.42;1.40;;;27.50;92.70;;;;;;4955632;28;20191;-61
2023/09/02 09:41:22;;;;;;;5.70;1.33;;;27.80;91.80;;;;;;4953629;28;20199;-61
2023/09/02 09:44:06;;;;;;;2.90;1.10;;;28.60;91.10;;;;;;4953863;28;20310;-61
2023/09/02 09:46:42;;;;;;;2.85;1.13;;;27.40;92.10;;;;;;4953122;28;20195;-61
2023/09/02 09:49:08;;;;;;;2.70;1.20;;;27.60;93.30;;;;;;4954211;28;20588;-61
2023/09/02 09:51:33;;;;;;;2.40;1.40;;;27.70;92.30;;;;;;4953092;28;20848;-61
2023/09/02 09:53:59;;;;;;;2.55;1.15;;;27.50;93.20;;;;;;4952392;28;20282;-61
2023/09/02 09:56:25;;;;;;;3.25;1.27;;;27.00;93.20;;;;;;4955066;28;20195;-61
2023/09/02 09:58:51;;;;;;;1.75;0.77;;;26.60;94.20;;;;;;4951919;28;20186;-61
2023/09/02 10:01:22;;;;;;;3.05;1.50;;;26.20;93.80;;;;;;4954063;28;20797;-63
2023/09/02 10:03:48;;;;;;;2.50;0.90;;;26.00;95.40;;;;;;4953786;28;20317;-63
2023/09/02 10:06:13;;;;;;;2.72;1.00;;;25.80;95.80;;;;;;4954569;28;20187;-62
2023/09/02 10:08:49;;;;;;;2.80;1.23;;;26.00;94.40;;;;;;4981074;28;20832;-63
2023/09/02 10:11:26;;;;;;;2.37;1.07;;;25.50;94.50;;;;;;4986384;28;20198;-63
2023/09/02 10:13:52;;;;;;;2.33;1.20;;;25.60;95.50;;;;;;4986074;28;20190;-63
2023/09/02 10:16:19;;;;;;;4.17;1.57;;;25.30;96.00;;;;;;4985660;28;20270;-63
2023/09/02 10:18:48;;;;;;;2.17;0.93;;;25.30;95.00;;;;;;4985988;28;20524;-63
2023/09/02 10:21:19;;;;;;;2.30;1.00;;;25.30;95.60;;;;;;4985710;28;20438;-62
2023/09/02 10:23:49;;;;;;;2.03;1.00;;;25.30;94.80;;;;;;4985639;28;20517;-63
2023/09/02 10:26:49;;;;;;;2.50;1.20;;;25.10;95.10;;;;;;4985984;28;20442;-63
2023/09/02 10:29:21;;;;;;;2.73;1.10;;;25.00;94.80;;;;;;4981806;28;21752;-62
2023/09/02 10:31:51;;;;;;;2.27;0.73;;;25.10;95.30;;;;;;4984018;28;20525;-63
2023/09/02 10:34:39;;;;;;;2.73;1.00;;;25.30;94.40;;;;;;4985046;28;20418;-66
2023/09/02 10:37:08;;;;;;;2.90;0.90;;;25.30;94.20;;;;;;4985501;28;20422;-66
2023/09/02 10:40:01;;;;;;;3.20;1.13;;;25.10;95.80;;;;;;4985537;28;20476;-66
2023/09/02 10:42:28;;;;;;;1.87;1.00;;;25.10;93.90;;;;;;4985248;28;20442;-66
2023/09/02 10:44:54;;;;;;;2.50;1.30;;;25.30;93.90;;;;;;4985132;28;20442;-66
2023/09/02 10:47:20;;;;;;;2.50;0.93;;;25.30;92.80;;;;;;4982783;28;20540;-66
2023/09/02 10:49:46;;;;;;;6.23;0.90;;;25.30;94.40;;;;;;4985141;28;20497;-66
2023/09/02 10:52:15;;;;;;;3.20;1.00;;;25.50;93.60;;;;;;4984884;28;20457;-66
2023/09/02 10:54:59;;;;;;;1.57;0.73;;;25.60;94.10;;;;;;4985512;28;20427;-66
2023/09/02 10:57:25;;;;;;;1.67;0.83;;;25.80;93.30;;;;;;4985455;28;20457;-66
2023/09/02 11:00:10;;;;;;;5.43;1.27;;;25.70;92.80;;;;;;4968450;28;21419;-66
2023/09/02 11:02:40;;;;;;;1.70;0.80;;;25.80;94.10;;;;;;4984980;28;20214;-66
2023/09/02 11:05:07;;;;;;;4.10;1.50;;;26.10;91.10;;;;;;4984413;28;20496;-65
2023/09/02 11:07:34;;;;;;;6.07;1.40;;;26.10;91.10;;;;;;4984717;28;20289;-66
2023/09/02 11:10:01;;;;;;;2.10;0.70;;;26.00;93.10;;;;;;4985210;28;20462;-66
2023/09/02 11:12:27;;;;;;;1.90;0.90;;;25.90;92.70;;;;;;4985001;28;20568;-66
2023/09/02 11:15:08;;;;;;;1.80;0.73;;;26.00;91.70;;;;;;4984922;28;20314;-66
2023/09/02 11:17:37;;;;;;;4.03;1.33;;;26.10;91.30;;;;;;4982938;28;20558;-66
2023/09/02 11:20:13;;;;;;;3.00;1.03;;;26.10;91.30;;;;;;4982061;28;20586;-66
2023/09/02 11:23:05;;;;;;;3.10;1.03;;;26.10;91.20;;;;;;4981442;28;20434;-66
2023/09/02 11:25:37;;;;;;;2.60;1.00;;;26.10;91.40;;;;;;4981646;28;20422;-66
2023/09/02 11:28:17;;;;;;;12.03;1.30;;;25.90;92.20;;;;;;4981731;28;20969;-66
2023/09/02 11:31:01;;;;;;;1.90;0.90;;;26.20;93.10;;;;;;4981364;28;20187;-66
2023/09/02 11:33:26;;;;;;;2.03;0.70;;;26.30;93.20;;;;;;4981658;28;20203;-66
2023/09/02 11:35:52;;;;;;;1.80;0.80;;;26.50;92.30;;;;;;4981057;28;20202;-65
2023/09/02 11:38:21;;;;;;;3.50;0.90;;;26.70;91.90;;;;;;4981751;28;20671;-66
2023/09/02 11:40:47;;;;;;;2.30;1.23;;;26.90;91.70;;;;;;4981433;28;20289;-66
2023/09/02 11:43:20;;;;;;;2.40;1.10;;;27.10;92.10;;;;;;4980757;28;20187;-65
2023/09/02 11:45:46;;;;;;;2.03;1.20;;;27.10;91.20;;;;;;4981059;28;20191;-65
2023/09/02 11:48:11;;;;;;;2.10;1.00;;;27.10;90.10;;;;;;4984024;28;20222;-65
2023/09/02 11:50:38;;;;;;;2.00;0.80;;;27.00;90.30;;;;;;4983757;28;20183;-65
2023/09/02 11:53:05;;;;;;;4.50;0.90;;;26.80;90.90;;;;;;4983546;28;20187;-65
2023/09/02 11:55:30;;;;;;;1.90;1.10;;;26.80;90.00;;;;;;4984069;28;20200;-65
2023/09/02 11:57:56;;;;;;;3.03;1.27;;;26.70;90.00;;;;;;4984583;28;20187;-65
2023/09/02 12:00:23;;;;;;;1.97;0.93;;;26.70;90.20;;;;;;4984384;28;20300;-65
2023/09/02 12:02:50;;;;;;;3.10;1.43;;;26.80;89.10;;;;;;4983680;28;20194;-65
2023/09/02 12:05:16;;;;;;;2.23;0.97;;;27.00;90.10;;;;;;4983438;28;20211;-65
2023/09/02 12:07:43;;;;;;;2.30;1.30;;;27.10;89.90;;;;;;4983427;28;20285;-65
2023/09/02 12:10:15;;;;;;;1.80;0.80;;;27.10;90.00;;;;;;4983479;28;20784;-65
2023/09/02 12:12:42;;;;;;;2.50;1.10;;;26.80;90.10;;;;;;4983920;28;20183;-66
2023/09/02 12:15:13;;;;;;;5.70;1.00;;;27.10;90.90;;;;;;4983284;28;20179;-64
2023/09/02 12:17:39;;;;;;;2.07;0.80;;;27.20;89.30;;;;;;4983106;28;20189;-64
2023/09/02 12:20:07;;;;;;;5.40;1.17;;;27.40;89.00;;;;;;4983438;28;20759;-64
2023/09/02 12:22:34;;;;;;;3.38;0.88;;;27.50;88.90;;;;;;4983320;28;20195;-64
2023/09/02 12:25:10;;;;;;;2.15;1.10;;;27.60;90.60;;;;;;4982933;28;20183;-64
2023/09/02 12:27:35;;;;;;;2.05;0.98;;;27.70;90.00;;;;;;4983826;28;20305;-64
2023/09/02 12:30:01;;;;;;;1.85;0.93;;;27.80;87.70;;;;;;4983031;28;20265;-64
2023/09/02 12:32:29;;;;;;;2.85;0.85;;;28.00;88.40;;;;;;4982936;28;20179;-64
2023/09/02 12:34:56;;;;;;;3.50;1.20;;;27.90;87.30;;;;;;4965465;28;20566;-64
2023/09/02 12:37:21;;;;;;;3.72;1.58;;;27.90;87.40;;;;;;4982698;28;20198;-64
2023/09/02 12:39:48;;;;;;;2.70;1.13;;;27.80;89.70;;;;;;4983271;28;20187;-64
2023/09/02 12:42:32;;;;;;;2.22;0.90;;;28.10;86.00;;;;;;4983020;28;20231;-64
2023/09/02 12:44:59;;;;;;;3.05;1.23;;;27.90;86.70;;;;;;4982646;28;20282;-64
2023/09/02 12:47:26;;;;;;;4.50;1.50;;;28.00;88.30;;;;;;4982405;28;20206;-64